sensor_id;sensor_type;location;lat;lon;timestamp;pressure;altitude;pressure_sealevel;temperature;humidity
3096;BME280;1558;42.700;23.360;2023-02-04T00:00:53;95170.78;;;1.35;100.00
3096;BME280;1558;42.700;23.360;2023-02-04T00:03:22;95148.84;;;1.20;100.00
3096;BME280;1558;42.700;23.360;2023-02-04T00:05:54;95167.13;;;1.26;100.00
3096;BME280;1558;42.700;23.360;2023-02-04T00:08:23;95149.16;;;1.18;100.00
3096;BME280;1558;42.700;23.360;2023-02-04T00:10:51;95153.84;;;1.26;100.00
3096;BME280;1558;42.700;23.360;2023-02-04T00:13:19;95146.69;;;1.27;100.00
3096;BME280;1558;42.700;23.360;2023-02-04T00:15:47;95123.41;;;1.14;100.00
3096;BME280;1558;42.700;23.360;2023-02-04T00:18:15;95069.75;;;0.83;100.00
3096;BME280;1558;42.700;23.360;2023-02-04T00:20:44;95129.50;;;1.14;100.00
3096;BME280;1558;42.700;23.360;2023-02-04T00:23:13;95131.03;;;1.25;100.00
3096;BME280;1558;42.700;23.360;2023-02-04T00:25:41;95129.69;;;1.28;100.00
3096;BME280;1558;42.700;23.360;2023-02-04T00:28:10;95140.28;;;1.33;100.00
3096;BME280;1558;42.700;23.360;2023-02-04T00:30:37;95131.22;;;1.34;100.00
3096;BME280;1558;42.700;23.360;2023-02-04T00:33:05;95059.59;;;0.90;100.00
3096;BME280;1558;42.700;23.360;2023-02-04T00:35:34;95132.25;;;1.38;100.00
3096;BME280;1558;42.700;23.360;2023-02-04T00:38:03;95124.25;;;1.43;100.00
3096;BME280;1558;42.700;23.360;2023-02-04T00:40:32;95123.22;;;1.39;100.00
3096;BME280;1558;42.700;23.360;2023-02-04T00:43:00;95134.84;;;1.48;100.00
3096;BME280;1558;42.700;23.360;2023-02-04T00:45:28;95128.50;;;1.44;100.00
3096;BME280;1558;42.700;23.360;2023-02-04T00:47:56;95113.34;;;1.45;100.00
3096;BME280;1558;42.700;23.360;2023-02-04T00:50:24;95105.34;;;1.50;100.00
3096;BME280;1558;42.700;23.360;2023-02-04T00:52:52;95112.28;;;1.46;100.00
3096;BME280;1558;42.700;23.360;2023-02-04T00:55:20;95038.59;;;0.94;100.00
3096;BME280;1558;42.700;23.360;2023-02-04T00:57:49;95103.63;;;1.30;100.00
3096;BME280;1558;42.700;23.360;2023-02-04T01:00:18;95096.00;;;1.23;100.00
3096;BME280;1558;42.700;23.360;2023-02-04T01:02:46;95063.59;;;0.88;100.00
3096;BME280;1558;42.700;23.360;2023-02-04T01:05:14;95082.53;;;1.10;100.00
3096;BME280;1558;42.700;23.360;2023-02-04T01:07:42;94990.06;;;0.54;100.00
3096;BME280;1558;42.700;23.360;2023-02-04T01:10:10;95081.38;;;1.26;100.00
3096;BME280;1558;42.700;23.360;2023-02-04T01:12:38;95062.81;;;1.21;100.00
3096;BME280;1558;42.700;23.360;2023-02-04T01:15:08;95051.41;;;1.20;100.00
3096;BME280;1558;42.700;23.360;2023-02-04T01:17:36;95069.81;;;1.41;100.00
3096;BME280;1558;42.700;23.360;2023-02-04T01:20:05;95066.84;;;1.47;100.00
3096;BME280;1558;42.700;23.360;2023-02-04T01:22:33;95060.34;;;1.58;100.00
3096;BME280;1558;42.700;23.360;2023-02-04T01:25:00;95064.81;;;1.63;100.00
3096;BME280;1558;42.700;23.360;2023-02-04T01:27:28;95058.25;;;1.55;100.00
3096;BME280;1558;42.700;23.360;2023-02-04T01:29:56;95063.50;;;1.60;100.00
3096;BME280;1558;42.700;23.360;2023-02-04T01:32:26;95050.09;;;1.47;100.00
3096;BME280;1558;42.700;23.360;2023-02-04T01:34:54;95039.34;;;1.33;100.00
3096;BME280;1558;42.700;23.360;2023-02-04T01:37:22;95034.34;;;1.26;100.00
3096;BME280;1558;42.700;23.360;2023-02-04T01:39:50;95034.41;;;1.45;100.00
3096;BME280;1558;42.700;23.360;2023-02-04T01:42:18;94970.19;;;1.14;100.00
3096;BME280;1558;42.700;23.360;2023-02-04T01:44:47;95020.59;;;1.48;100.00
3096;BME280;1558;42.700;23.360;2023-02-04T01:47:15;95031.13;;;1.58;100.00
3096;BME280;1558;42.700;23.360;2023-02-04T01:49:45;95011.59;;;1.44;100.00
3096;BME280;1558;42.700;23.360;2023-02-04T01:52:17;95014.34;;;1.34;100.00
3096;BME280;1558;42.700;23.360;2023-02-04T01:54:45;94990.94;;;1.07;100.00
3096;BME280;1558;42.700;23.360;2023-02-04T01:57:15;94902.53;;;0.54;100.00
3096;BME280;1558;42.700;23.360;2023-02-04T01:59:44;94992.78;;;1.12;100.00
3096;BME280;1558;42.700;23.360;2023-02-04T02:02:37;95010.59;;;1.11;100.00
3096;BME280;1558;42.700;23.360;2023-02-04T02:05:08;94981.28;;;0.93;100.00
3096;BME280;1558;42.700;23.360;2023-02-04T02:07:37;95004.59;;;0.96;100.00
3096;BME280;1558;42.700;23.360;2023-02-04T02:10:08;95021.00;;;1.03;100.00
3096;BME280;1558;42.700;23.360;2023-02-04T02:12:37;95010.34;;;1.08;100.00
3096;BME280;1558;42.700;23.360;2023-02-04T02:15:06;94981.78;;;0.95;100.00
3096;BME280;1558;42.700;23.360;2023-02-04T02:17:35;94945.56;;;0.80;100.00
3096;BME280;1558;42.700;23.360;2023-02-04T02:20:07;94885.06;;;0.48;100.00
3096;BME280;1558;42.700;23.360;2023-02-04T02:22:39;94972.41;;;1.02;100.00
3096;BME280;1558;42.700;23.360;2023-02-04T02:25:12;94985.94;;;1.06;100.00
3096;BME280;1558;42.700;23.360;2023-02-04T02:27:41;94979.09;;;1.00;100.00
3096;BME280;1558;42.700;23.360;2023-02-04T02:30:11;94965.81;;;1.00;100.00
3096;BME280;1558;42.700;23.360;2023-02-04T02:32:40;94956.09;;;0.90;100.00
3096;BME280;1558;42.700;23.360;2023-02-04T02:35:08;94945.97;;;0.92;100.00
3096;BME280;1558;42.700;23.360;2023-02-04T02:37:36;94942.53;;;0.92;100.00
3096;BME280;1558;42.700;23.360;2023-02-04T02:40:05;94873.53;;;0.63;100.00
3096;BME280;1558;42.700;23.360;2023-02-04T02:42:35;94918.09;;;0.95;100.00
3096;BME280;1558;42.700;23.360;2023-02-04T02:45:07;94911.34;;;1.02;100.00
3096;BME280;1558;42.700;23.360;2023-02-04T02:47:38;94844.91;;;0.60;100.00
3096;BME280;1558;42.700;23.360;2023-02-04T02:50:07;94886.28;;;0.90;100.00
3096;BME280;1558;42.700;23.360;2023-02-04T02:52:37;94810.84;;;0.43;100.00
3096;BME280;1558;42.700;23.360;2023-02-04T02:55:12;94910.59;;;1.02;100.00
3096;BME280;1558;42.700;23.360;2023-02-04T02:57:43;94907.97;;;0.97;100.00
3096;BME280;1558;42.700;23.360;2023-02-04T03:00:14;94905.53;;;1.00;100.00
3096;BME280;1558;42.700;23.360;2023-02-04T03:02:43;94914.75;;;1.08;100.00
3096;BME280;1558;42.700;23.360;2023-02-04T03:05:12;94904.47;;;1.01;100.00
3096;BME280;1558;42.700;23.360;2023-02-04T03:07:40;94913.06;;;1.17;100.00
3096;BME280;1558;42.700;23.360;2023-02-04T03:10:08;94909.91;;;1.15;100.00
3096;BME280;1558;42.700;23.360;2023-02-04T03:12:37;94922.50;;;1.04;100.00
3096;BME280;1558;42.700;23.360;2023-02-04T03:15:07;94920.75;;;0.95;100.00
3096;BME280;1558;42.700;23.360;2023-02-04T03:17:35;94916.44;;;0.99;100.00
3096;BME280;1558;42.700;23.360;2023-02-04T03:20:04;94918.81;;;1.00;100.00
3096;BME280;1558;42.700;23.360;2023-02-04T03:22:32;94917.47;;;1.03;100.00
3096;BME280;1558;42.700;23.360;2023-02-04T03:25:00;94900.94;;;1.11;100.00
3096;BME280;1558;42.700;23.360;2023-02-04T03:27:28;94885.72;;;0.93;100.00
3096;BME280;1558;42.700;23.360;2023-02-04T03:29:56;94896.00;;;0.99;100.00
3096;BME280;1558;42.700;23.360;2023-02-04T03:32:26;94844.41;;;0.82;100.00
3096;BME280;1558;42.700;23.360;2023-02-04T03:34:54;94894.88;;;1.29;100.00
3096;BME280;1558;42.700;23.360;2023-02-04T03:37:22;94884.94;;;1.16;100.00
3096;BME280;1558;42.700;23.360;2023-02-04T03:39:49;94893.31;;;1.28;100.00
3096;BME280;1558;42.700;23.360;2023-02-04T03:42:17;94905.84;;;1.22;100.00
3096;BME280;1558;42.700;23.360;2023-02-04T03:44:45;94900.53;;;1.22;100.00
3096;BME280;1558;42.700;23.360;2023-02-04T03:47:13;94892.16;;;1.34;100.00
3096;BME280;1558;42.700;23.360;2023-02-04T03:49:42;94857.47;;;1.25;100.00
3096;BME280;1558;42.700;23.360;2023-02-04T03:52:10;94783.94;;;0.79;100.00
3096;BME280;1558;42.700;23.360;2023-02-04T03:54:38;94864.94;;;1.23;100.00
3096;BME280;1558;42.700;23.360;2023-02-04T03:57:06;94874.78;;;1.23;100.00
3096;BME280;1558;42.700;23.360;2023-02-04T03:59:34;94871.25;;;1.27;100.00
3096;BME280;1558;42.700;23.360;2023-02-04T04:02:02;94840.50;;;1.21;100.00
3096;BME280;1558;42.700;23.360;2023-02-04T04:04:30;94845.72;;;1.31;100.00
3096;BME280;1558;42.700;23.360;2023-02-04T04:06:59;94821.22;;;1.16;100.00
3096;BME280;1558;42.700;23.360;2023-02-04T04:09:27;94835.28;;;1.16;100.00
3096;BME280;1558;42.700;23.360;2023-02-04T04:11:56;94849.25;;;1.46;100.00
3096;BME280;1558;42.700;23.360;2023-02-04T04:14:23;94840.94;;;1.52;100.00
3096;BME280;1558;42.700;23.360;2023-02-04T04:16:51;94792.72;;;1.21;100.00
3096;BME280;1558;42.700;23.360;2023-02-04T04:19:19;94839.41;;;1.46;100.00
3096;BME280;1558;42.700;23.360;2023-02-04T04:21:47;94829.84;;;1.45;100.00
3096;BME280;1558;42.700;23.360;2023-02-04T04:24:16;94820.16;;;1.35;100.00
3096;BME280;1558;42.700;23.360;2023-02-04T04:26:44;94798.75;;;1.27;100.00
3096;BME280;1558;42.700;23.360;2023-02-04T04:29:12;94842.50;;;1.53;100.00
3096;BME280;1558;42.700;23.360;2023-02-04T04:31:40;94839.00;;;1.58;100.00
3096;BME280;1558;42.700;23.360;2023-02-04T04:34:08;94810.81;;;1.38;100.00
3096;BME280;1558;42.700;23.360;2023-02-04T04:36:36;94845.25;;;1.67;100.00
3096;BME280;1558;42.700;23.360;2023-02-04T04:39:04;94838.63;;;1.64;100.00
3096;BME280;1558;42.700;23.360;2023-02-04T04:41:33;94847.63;;;1.68;100.00
3096;BME280;1558;42.700;23.360;2023-02-04T04:44:01;94819.19;;;1.69;100.00
3096;BME280;1558;42.700;23.360;2023-02-04T04:46:29;94792.53;;;1.36;100.00
3096;BME280;1558;42.700;23.360;2023-02-04T04:48:57;94822.25;;;1.57;100.00
3096;BME280;1558;42.700;23.360;2023-02-04T04:51:25;94866.69;;;1.75;100.00
3096;BME280;1558;42.700;23.360;2023-02-04T04:53:53;94854.44;;;1.74;100.00
3096;BME280;1558;42.700;23.360;2023-02-04T04:56:21;94866.19;;;1.73;100.00
3096;BME280;1558;42.700;23.360;2023-02-04T04:58:50;94850.72;;;1.75;100.00
3096;BME280;1558;42.700;23.360;2023-02-04T05:01:18;94833.75;;;1.71;100.00
3096;BME280;1558;42.700;23.360;2023-02-04T05:03:48;94702.34;;;0.89;100.00
3096;BME280;1558;42.700;23.360;2023-02-04T05:06:17;94852.88;;;1.92;100.00
3096;BME280;1558;42.700;23.360;2023-02-04T05:08:50;94852.09;;;1.91;100.00
3096;BME280;1558;42.700;23.360;2023-02-04T05:11:18;94777.88;;;1.39;100.00
3096;BME280;1558;42.700;23.360;2023-02-04T05:13:46;94852.47;;;1.85;100.00
3096;BME280;1558;42.700;23.360;2023-02-04T05:16:16;94874.53;;;1.85;100.00
3096;BME280;1558;42.700;23.360;2023-02-04T05:18:44;94890.16;;;1.87;100.00
3096;BME280;1558;42.700;23.360;2023-02-04T05:21:11;94890.75;;;2.02;100.00
3096;BME280;1558;42.700;23.360;2023-02-04T05:23:39;94871.34;;;2.21;100.00
3096;BME280;1558;42.700;23.360;2023-02-04T05:26:07;94878.31;;;2.35;100.00
3096;BME280;1558;42.700;23.360;2023-02-04T05:28:39;94878.69;;;2.61;100.00
3096;BME280;1558;42.700;23.360;2023-02-04T05:31:07;94906.06;;;2.94;100.00
3096;BME280;1558;42.700;23.360;2023-02-04T05:33:36;94882.59;;;2.96;100.00
3096;BME280;1558;42.700;23.360;2023-02-04T05:36:04;94894.84;;;3.10;100.00
3096;BME280;1558;42.700;23.360;2023-02-04T05:38:32;94899.50;;;3.18;100.00
3096;BME280;1558;42.700;23.360;2023-02-04T05:41:00;94887.75;;;3.19;100.00
3096;BME280;1558;42.700;23.360;2023-02-04T05:43:28;94883.53;;;3.18;100.00
3096;BME280;1558;42.700;23.360;2023-02-04T05:45:56;94896.84;;;3.18;100.00
3096;BME280;1558;42.700;23.360;2023-02-04T05:48:24;94891.53;;;3.18;100.00
3096;BME280;1558;42.700;23.360;2023-02-04T05:50:53;94863.97;;;3.09;100.00
3096;BME280;1558;42.700;23.360;2023-02-04T05:53:21;94883.81;;;3.17;100.00
3096;BME280;1558;42.700;23.360;2023-02-04T05:55:51;94856.66;;;3.01;100.00
3096;BME280;1558;42.700;23.360;2023-02-04T05:58:19;94879.94;;;3.09;100.00
3096;BME280;1558;42.700;23.360;2023-02-04T06:00:47;94890.59;;;3.09;100.00
3096;BME280;1558;42.700;23.360;2023-02-04T06:03:15;94885.09;;;3.06;100.00
3096;BME280;1558;42.700;23.360;2023-02-04T06:05:45;94889.69;;;3.00;100.00
3096;BME280;1558;42.700;23.360;2023-02-04T06:08:14;94878.38;;;2.95;100.00
3096;BME280;1558;42.700;23.360;2023-02-04T06:10:42;94873.81;;;2.95;100.00
3096;BME280;1558;42.700;23.360;2023-02-04T06:13:10;94891.69;;;3.08;100.00
3096;BME280;1558;42.700;23.360;2023-02-04T06:15:38;94890.03;;;3.12;100.00
3096;BME280;1558;42.700;23.360;2023-02-04T06:18:06;94820.13;;;2.74;100.00
3096;BME280;1558;42.700;23.360;2023-02-04T06:20:34;94872.88;;;3.18;100.00
3096;BME280;1558;42.700;23.360;2023-02-04T06:23:02;94825.59;;;2.97;100.00
3096;BME280;1558;42.700;23.360;2023-02-04T06:25:31;94882.63;;;3.36;100.00
3096;BME280;1558;42.700;23.360;2023-02-04T06:27:59;94883.94;;;3.25;100.00
3096;BME280;1558;42.700;23.360;2023-02-04T06:30:27;94826.88;;;2.99;100.00
3096;BME280;1558;42.700;23.360;2023-02-04T06:32:56;94839.09;;;3.14;100.00
3096;BME280;1558;42.700;23.360;2023-02-04T06:35:26;94881.84;;;3.36;100.00
3096;BME280;1558;42.700;23.360;2023-02-04T06:37:54;94875.13;;;3.38;100.00
3096;BME280;1558;42.700;23.360;2023-02-04T06:40:22;94876.72;;;3.39;100.00
3096;BME280;1558;42.700;23.360;2023-02-04T06:42:51;94898.72;;;3.45;100.00
3096;BME280;1558;42.700;23.360;2023-02-04T06:45:20;94886.19;;;3.46;100.00
3096;BME280;1558;42.700;23.360;2023-02-04T06:47:49;94877.03;;;3.52;100.00
3096;BME280;1558;42.700;23.360;2023-02-04T06:50:18;94894.56;;;3.53;100.00
3096;BME280;1558;42.700;23.360;2023-02-04T06:52:46;94879.34;;;3.67;100.00
3096;BME280;1558;42.700;23.360;2023-02-04T06:55:15;94886.03;;;3.91;100.00
3096;BME280;1558;42.700;23.360;2023-02-04T06:57:44;94867.06;;;3.93;100.00
3096;BME280;1558;42.700;23.360;2023-02-04T07:00:14;94863.91;;;3.91;100.00
3096;BME280;1558;42.700;23.360;2023-02-04T07:02:41;94866.47;;;3.96;100.00
3096;BME280;1558;42.700;23.360;2023-02-04T07:05:11;94863.22;;;3.99;100.00
3096;BME280;1558;42.700;23.360;2023-02-04T07:07:40;94870.09;;;4.00;100.00
3096;BME280;1558;42.700;23.360;2023-02-04T07:10:08;94856.66;;;4.63;100.00
3096;BME280;1558;42.700;23.360;2023-02-04T07:12:37;94873.91;;;5.18;100.00
3096;BME280;1558;42.700;23.360;2023-02-04T07:15:06;94847.28;;;5.44;99.68
3096;BME280;1558;42.700;23.360;2023-02-04T07:17:35;94863.34;;;6.35;95.56
3096;BME280;1558;42.700;23.360;2023-02-04T07:20:04;94855.63;;;6.76;87.16
3096;BME280;1558;42.700;23.360;2023-02-04T07:22:32;94833.22;;;6.89;83.90
3096;BME280;1558;42.700;23.360;2023-02-04T07:25:00;94845.78;;;7.06;82.98
3096;BME280;1558;42.700;23.360;2023-02-04T07:27:28;94833.38;;;7.30;80.61
3096;BME280;1558;42.700;23.360;2023-02-04T07:29:56;94859.63;;;7.16;79.18
3096;BME280;1558;42.700;23.360;2023-02-04T07:32:24;94847.47;;;7.19;78.26
3096;BME280;1558;42.700;23.360;2023-02-04T07:34:54;94860.19;;;7.30;77.93
3096;BME280;1558;42.700;23.360;2023-02-04T07:37:22;94858.00;;;6.52;78.40
3096;BME280;1558;42.700;23.360;2023-02-04T07:39:50;94866.97;;;6.04;80.35
3096;BME280;1558;42.700;23.360;2023-02-04T07:42:18;94870.94;;;6.24;81.93
3096;BME280;1558;42.700;23.360;2023-02-04T07:44:46;94850.63;;;6.49;81.26
3096;BME280;1558;42.700;23.360;2023-02-04T07:47:14;94863.53;;;6.38;81.62
3096;BME280;1558;42.700;23.360;2023-02-04T07:49:42;94868.25;;;6.50;81.90
3096;BME280;1558;42.700;23.360;2023-02-04T07:52:14;94847.59;;;6.67;79.93
3096;BME280;1558;42.700;23.360;2023-02-04T07:54:42;94706.38;;;5.87;80.77
3096;BME280;1558;42.700;23.360;2023-02-04T07:57:09;94847.63;;;7.60;77.75
3096;BME280;1558;42.700;23.360;2023-02-04T07:59:37;94851.34;;;7.97;74.32
3096;BME280;1558;42.700;23.360;2023-02-04T08:02:06;94844.19;;;7.51;73.94
3096;BME280;1558;42.700;23.360;2023-02-04T08:04:35;94843.53;;;7.16;74.93
3096;BME280;1558;42.700;23.360;2023-02-04T08:07:05;94854.06;;;6.75;75.99
3096;BME280;1558;42.700;23.360;2023-02-04T08:09:34;94863.03;;;6.28;78.48
3096;BME280;1558;42.700;23.360;2023-02-04T08:12:02;94852.34;;;6.10;79.56
3096;BME280;1558;42.700;23.360;2023-02-04T08:14:30;94862.72;;;6.03;82.11
3096;BME280;1558;42.700;23.360;2023-02-04T08:16:58;94856.88;;;6.01;82.19
3096;BME280;1558;42.700;23.360;2023-02-04T08:19:26;94858.53;;;5.80;83.79
3096;BME280;1558;42.700;23.360;2023-02-04T08:21:54;94854.88;;;5.59;85.14
3096;BME280;1558;42.700;23.360;2023-02-04T08:24:22;94841.59;;;5.37;86.11
3096;BME280;1558;42.700;23.360;2023-02-04T08:26:53;94846.50;;;5.52;87.25
3096;BME280;1558;42.700;23.360;2023-02-04T08:29:21;94804.97;;;4.98;88.13
3096;BME280;1558;42.700;23.360;2023-02-04T08:31:49;94867.81;;;5.26;89.00
3096;BME280;1558;42.700;23.360;2023-02-04T08:34:17;94813.22;;;4.79;90.92
3096;BME280;1558;42.700;23.360;2023-02-04T08:36:45;94863.31;;;5.05;92.68
3096;BME280;1558;42.700;23.360;2023-02-04T08:39:13;94853.38;;;4.97;94.32
3096;BME280;1558;42.700;23.360;2023-02-04T08:41:41;94845.22;;;5.02;94.99
3096;BME280;1558;42.700;23.360;2023-02-04T08:44:10;94814.72;;;4.94;95.60
3096;BME280;1558;42.700;23.360;2023-02-04T08:46:41;94818.38;;;4.76;95.99
3096;BME280;1558;42.700;23.360;2023-02-04T08:49:09;94848.16;;;4.92;96.90
3096;BME280;1558;42.700;23.360;2023-02-04T08:51:37;94844.88;;;4.95;98.21
3096;BME280;1558;42.700;23.360;2023-02-04T08:54:05;94849.94;;;5.05;98.28
3096;BME280;1558;42.700;23.360;2023-02-04T08:56:33;94778.22;;;4.59;97.55
3096;BME280;1558;42.700;23.360;2023-02-04T08:59:03;94850.91;;;5.09;97.56
3096;BME280;1558;42.700;23.360;2023-02-04T09:01:32;94845.22;;;5.02;98.22
3096;BME280;1558;42.700;23.360;2023-02-04T09:04:02;94850.88;;;5.00;99.24
3096;BME280;1558;42.700;23.360;2023-02-04T09:06:30;94852.63;;;5.05;99.51
3096;BME280;1558;42.700;23.360;2023-02-04T09:09:01;94830.88;;;4.89;100.00
3096;BME280;1558;42.700;23.360;2023-02-04T09:11:29;94829.06;;;4.76;100.00
3096;BME280;1558;42.700;23.360;2023-02-04T09:13:57;94846.47;;;4.96;100.00
3096;BME280;1558;42.700;23.360;2023-02-04T09:16:25;94813.09;;;4.85;100.00
3096;BME280;1558;42.700;23.360;2023-02-04T09:18:56;94840.09;;;5.14;100.00
3096;BME280;1558;42.700;23.360;2023-02-04T09:21:32;94817.06;;;4.96;100.00
3096;BME280;1558;42.700;23.360;2023-02-04T09:24:00;94839.00;;;5.15;100.00
3096;BME280;1558;42.700;23.360;2023-02-04T09:26:28;94840.41;;;5.12;99.41
3096;BME280;1558;42.700;23.360;2023-02-04T09:28:56;94816.16;;;5.09;99.52
3096;BME280;1558;42.700;23.360;2023-02-04T09:31:24;94794.94;;;5.04;97.41
3096;BME280;1558;42.700;23.360;2023-02-04T09:33:52;94823.84;;;5.41;96.02
3096;BME280;1558;42.700;23.360;2023-02-04T09:36:22;94828.84;;;5.34;94.02
3096;BME280;1558;42.700;23.360;2023-02-04T09:38:54;94818.78;;;5.31;94.30
3096;BME280;1558;42.700;23.360;2023-02-04T09:41:22;94673.03;;;4.29;96.50
3096;BME280;1558;42.700;23.360;2023-02-04T09:43:50;94828.75;;;5.08;100.00
3096;BME280;1558;42.700;23.360;2023-02-04T09:46:20;94817.56;;;4.75;100.00
3096;BME280;1558;42.700;23.360;2023-02-04T09:48:48;94817.72;;;4.70;100.00
3096;BME280;1558;42.700;23.360;2023-02-04T09:51:19;94830.72;;;4.63;100.00
3096;BME280;1558;42.700;23.360;2023-02-04T09:53:51;94829.81;;;4.68;100.00
3096;BME280;1558;42.700;23.360;2023-02-04T09:56:20;94826.81;;;4.69;100.00
3096;BME280;1558;42.700;23.360;2023-02-04T09:58:49;94825.88;;;4.65;100.00
3096;BME280;1558;42.700;23.360;2023-02-04T10:01:20;94798.47;;;4.51;100.00
3096;BME280;1558;42.700;23.360;2023-02-04T10:03:48;94794.56;;;4.57;100.00
3096;BME280;1558;42.700;23.360;2023-02-04T10:06:18;94787.78;;;4.51;100.00
3096;BME280;1558;42.700;23.360;2023-02-04T10:08:48;94724.97;;;4.01;100.00
3096;BME280;1558;42.700;23.360;2023-02-04T10:11:20;94799.56;;;4.59;100.00
3096;BME280;1558;42.700;23.360;2023-02-04T10:13:50;94794.69;;;4.52;100.00
3096;BME280;1558;42.700;23.360;2023-02-04T10:16:21;94800.50;;;4.54;100.00
3096;BME280;1558;42.700;23.360;2023-02-04T10:18:56;94794.50;;;4.49;100.00
3096;BME280;1558;42.700;23.360;2023-02-04T10:21:27;94770.28;;;4.45;100.00
3096;BME280;1558;42.700;23.360;2023-02-04T10:23:56;94785.59;;;4.53;100.00
3096;BME280;1558;42.700;23.360;2023-02-04T10:26:28;94776.97;;;4.56;100.00
3096;BME280;1558;42.700;23.360;2023-02-04T10:28:58;94774.31;;;4.56;100.00
3096;BME280;1558;42.700;23.360;2023-02-04T10:31:32;94762.63;;;4.52;100.00
3096;BME280;1558;42.700;23.360;2023-02-04T10:34:13;94776.44;;;4.76;100.00
3096;BME280;1558;42.700;23.360;2023-02-04T10:36:46;94754.50;;;4.57;100.00
3096;BME280;1558;42.700;23.360;2023-02-04T10:39:16;94752.50;;;4.63;100.00
3096;BME280;1558;42.700;23.360;2023-02-04T10:41:48;94756.66;;;4.77;100.00
3096;BME280;1558;42.700;23.360;2023-02-04T10:44:18;94764.66;;;4.77;100.00
3096;BME280;1558;42.700;23.360;2023-02-04T10:46:47;94657.00;;;3.98;100.00
3096;BME280;1558;42.700;23.360;2023-02-04T10:49:21;94769.38;;;4.80;100.00
3096;BME280;1558;42.700;23.360;2023-02-04T10:51:50;94776.44;;;4.85;100.00
3096;BME280;1558;42.700;23.360;2023-02-04T10:54:20;94745.13;;;4.68;100.00
3096;BME280;1558;42.700;23.360;2023-02-04T10:57:07;94757.13;;;4.79;100.00
3096;BME280;1558;42.700;23.360;2023-02-04T10:59:40;94722.84;;;4.42;100.00
3096;BME280;1558;42.700;23.360;2023-02-04T11:02:32;94760.78;;;4.61;100.00
3096;BME280;1558;42.700;23.360;2023-02-04T11:05:03;94759.03;;;4.57;100.00
3096;BME280;1558;42.700;23.360;2023-02-04T11:07:33;94748.56;;;4.60;100.00
3096;BME280;1558;42.700;23.360;2023-02-04T11:10:01;94758.19;;;4.70;100.00
3096;BME280;1558;42.700;23.360;2023-02-04T11:12:39;94756.00;;;4.80;100.00
3096;BME280;1558;42.700;23.360;2023-02-04T11:15:42;94730.88;;;4.82;100.00
3096;BME280;1558;42.700;23.360;2023-02-04T11:18:12;94743.78;;;4.88;100.00
3096;BME280;1558;42.700;23.360;2023-02-04T11:20:55;94736.88;;;4.87;100.00
3096;BME280;1558;42.700;23.360;2023-02-04T11:23:33;94739.56;;;4.96;100.00
3096;BME280;1558;42.700;23.360;2023-02-04T11:26:30;94744.94;;;5.04;100.00
3096;BME280;1558;42.700;23.360;2023-02-04T11:29:24;94726.19;;;4.87;100.00
3096;BME280;1558;42.700;23.360;2023-02-04T11:32:00;94743.19;;;4.91;100.00
3096;BME280;1558;42.700;23.360;2023-02-04T11:34:31;94728.34;;;4.76;100.00
3096;BME280;1558;42.700;23.360;2023-02-04T11:37:17;94652.81;;;4.37;100.00
3096;BME280;1558;42.700;23.360;2023-02-04T11:39:48;94654.22;;;4.34;100.00
3096;BME280;1558;42.700;23.360;2023-02-04T11:42:20;94736.22;;;4.82;100.00
3096;BME280;1558;42.700;23.360;2023-02-04T11:44:54;94692.06;;;4.36;100.00
3096;BME280;1558;42.700;23.360;2023-02-04T11:47:26;94762.72;;;4.69;100.00
3096;BME280;1558;42.700;23.360;2023-02-04T11:49:56;94742.28;;;4.65;100.00
3096;BME280;1558;42.700;23.360;2023-02-04T11:52:24;94757.84;;;4.63;100.00
3096;BME280;1558;42.700;23.360;2023-02-04T11:54:54;94756.44;;;4.65;100.00
3096;BME280;1558;42.700;23.360;2023-02-04T11:57:22;94750.31;;;4.65;100.00
3096;BME280;1558;42.700;23.360;2023-02-04T11:59:50;94753.41;;;4.58;100.00
3096;BME280;1558;42.700;23.360;2023-02-04T12:02:21;94740.66;;;4.55;100.00
3096;BME280;1558;42.700;23.360;2023-02-04T12:04:52;94752.66;;;4.66;100.00
3096;BME280;1558;42.700;23.360;2023-02-04T12:07:23;94746.00;;;4.55;100.00
3096;BME280;1558;42.700;23.360;2023-02-04T12:09:52;94682.88;;;4.20;100.00
3096;BME280;1558;42.700;23.360;2023-02-04T12:12:25;94731.19;;;4.49;100.00
3096;BME280;1558;42.700;23.360;2023-02-04T12:15:01;94733.31;;;4.30;100.00
3096;BME280;1558;42.700;23.360;2023-02-04T12:17:30;94741.09;;;4.18;100.00
3096;BME280;1558;42.700;23.360;2023-02-04T12:19:59;94725.34;;;4.08;100.00
3096;BME280;1558;42.700;23.360;2023-02-04T12:22:29;94732.06;;;4.05;100.00
3096;BME280;1558;42.700;23.360;2023-02-04T12:24:57;94731.53;;;4.26;100.00
3096;BME280;1558;42.700;23.360;2023-02-04T12:27:25;94690.41;;;3.96;100.00
3096;BME280;1558;42.700;23.360;2023-02-04T12:29:53;94709.94;;;4.05;100.00
3096;BME280;1558;42.700;23.360;2023-02-04T12:32:21;94731.63;;;4.12;100.00
3096;BME280;1558;42.700;23.360;2023-02-04T12:34:50;94716.50;;;3.99;100.00
3096;BME280;1558;42.700;23.360;2023-02-04T12:37:19;94726.88;;;4.09;100.00
3096;BME280;1558;42.700;23.360;2023-02-04T12:39:47;94725.44;;;4.03;100.00
3096;BME280;1558;42.700;23.360;2023-02-04T12:42:15;94733.63;;;4.06;100.00
3096;BME280;1558;42.700;23.360;2023-02-04T12:44:45;94664.59;;;3.83;100.00
3096;BME280;1558;42.700;23.360;2023-02-04T12:47:13;94697.38;;;4.05;100.00
3096;BME280;1558;42.700;23.360;2023-02-04T12:49:40;94724.81;;;4.28;100.00
3096;BME280;1558;42.700;23.360;2023-02-04T12:52:10;94717.31;;;4.30;100.00
3096;BME280;1558;42.700;23.360;2023-02-04T12:54:38;94720.81;;;4.39;100.00
3096;BME280;1558;42.700;23.360;2023-02-04T12:57:06;94684.56;;;4.16;100.00
3096;BME280;1558;42.700;23.360;2023-02-04T12:59:34;94732.63;;;4.47;100.00
3096;BME280;1558;42.700;23.360;2023-02-04T13:02:02;94728.25;;;4.51;100.00
3096;BME280;1558;42.700;23.360;2023-02-04T13:04:30;94709.50;;;4.42;100.00
3096;BME280;1558;42.700;23.360;2023-02-04T13:07:01;94720.38;;;4.54;100.00
3096;BME280;1558;42.700;23.360;2023-02-04T13:09:30;94719.78;;;4.57;100.00
3096;BME280;1558;42.700;23.360;2023-02-04T13:12:00;94720.91;;;4.56;100.00
3096;BME280;1558;42.700;23.360;2023-02-04T13:14:28;94728.53;;;4.49;100.00
3096;BME280;1558;42.700;23.360;2023-02-04T13:16:55;94722.72;;;4.47;100.00
3096;BME280;1558;42.700;23.360;2023-02-04T13:19:25;94678.63;;;4.19;100.00
3096;BME280;1558;42.700;23.360;2023-02-04T13:21:53;94731.19;;;4.49;100.00
3096;BME280;1558;42.700;23.360;2023-02-04T13:24:21;94731.06;;;4.54;100.00